Terminal Aerodrome Forecast
Issued by NWS

Home | Current Version | Previous Version | Graphics & Text | Print | Product List | Glossary On
Versions: 1 2 3 4 5 6 7 8 9 10 11 12 13 14 15
000
FTUS43 KICT 252328
TAFRSL
TAF
KRSL 252328Z 2600/2624 20009KT P6SM OVC080
     FM260500 29012KT P6SM -RASN OVC050
     FM260700 32017G24KT P6SM OVC080
     FM261400 32020G30KT P6SM SCT100=

USA.gov is the U.S. government's official web portal to all federal, state and local government web resources and services.